createdAt,value
2022-09-30T00:01:44.081Z,6.80
2022-09-30T00:04:15.195Z,6.70
2022-09-30T00:06:42.646Z,6.80
2022-09-30T00:09:11.923Z,6.80
2022-09-30T00:11:44.811Z,6.80
2022-09-30T00:14:16.468Z,6.80
2022-09-30T00:16:51.336Z,6.80
2022-09-30T00:19:20.805Z,6.80
2022-09-30T00:21:47.704Z,6.80
2022-09-30T00:24:14.728Z,6.80
2022-09-30T00:26:44.667Z,6.80
2022-09-30T00:29:12.170Z,6.80
2022-09-30T00:31:44.801Z,6.70
2022-09-30T00:34:12.156Z,6.70
2022-09-30T00:36:49.135Z,6.70
2022-09-30T00:39:29.547Z,6.60
2022-09-30T00:42:04.893Z,6.60
2022-09-30T00:44:57.263Z,6.60
2022-09-30T00:47:36.114Z,6.60
2022-09-30T00:50:32.537Z,6.60
2022-09-30T00:53:27.246Z,6.60
2022-09-30T00:56:06.628Z,6.70
2022-09-30T00:58:49.291Z,6.70
2022-09-30T01:01:19.232Z,6.80
2022-09-30T01:03:53.330Z,6.80
2022-09-30T01:06:24.820Z,6.80
2022-09-30T01:08:55.410Z,6.80
2022-09-30T01:11:34.875Z,6.80
2022-09-30T01:14:23.819Z,6.70
2022-09-30T01:17:08.103Z,6.70
2022-09-30T01:20:13.931Z,6.70
2022-09-30T01:23:11.899Z,6.70
2022-09-30T01:26:02.350Z,6.60
2022-09-30T01:29:08.121Z,6.70
2022-09-30T01:31:50.571Z,6.70
2022-09-30T01:34:26.574Z,6.70
2022-09-30T01:37:12.324Z,6.70
2022-09-30T01:39:58.193Z,6.70
2022-09-30T01:42:51.519Z,6.70
2022-09-30T01:45:24.926Z,6.70
2022-09-30T01:48:01.984Z,6.70
2022-09-30T01:50:54.515Z,6.70
2022-09-30T01:53:52.176Z,6.70
2022-09-30T01:56:28.233Z,6.70
2022-09-30T01:59:02.297Z,6.70
2022-09-30T02:01:36.778Z,6.70
2022-09-30T02:04:15.689Z,6.70
2022-09-30T02:06:51.645Z,6.60
2022-09-30T02:09:35.560Z,6.70
2022-09-30T02:12:08.799Z,6.70
2022-09-30T02:14:46.148Z,6.70
2022-09-30T02:17:23.447Z,6.70
2022-09-30T02:20:09.434Z,6.70
2022-09-30T02:22:44.814Z,6.60
2022-09-30T02:25:20.588Z,6.60
2022-09-30T02:27:55.977Z,6.60
2022-09-30T02:30:23.351Z,6.60
2022-09-30T02:32:53.025Z,6.70
2022-09-30T02:35:31.437Z,6.70
2022-09-30T02:38:05.678Z,6.70
2022-09-30T02:41:12.238Z,6.60
2022-09-30T02:43:44.736Z,6.60
2022-09-30T02:46:21.566Z,6.60
2022-09-30T02:49:22.840Z,6.50
2022-09-30T02:52:02.368Z,6.50
2022-09-30T02:54:51.436Z,6.60
2022-09-30T02:57:33.215Z,6.60
2022-09-30T03:00:03.244Z,6.50
2022-09-30T03:02:30.634Z,6.50
2022-09-30T03:04:57.511Z,6.50
2022-09-30T03:07:24.978Z,6.40
2022-09-30T03:09:59.977Z,6.40
2022-09-30T03:12:34.710Z,6.30
2022-09-30T03:15:25.052Z,6.30
2022-09-30T03:18:33.356Z,6.20
2022-09-30T03:21:09.662Z,6.10
2022-09-30T03:24:01.522Z,6.10
2022-09-30T03:27:04.356Z,6.00
2022-09-30T03:29:56.620Z,5.90
2022-09-30T03:32:49.450Z,5.80
2022-09-30T03:35:24.031Z,5.60
2022-09-30T03:38:24.099Z,5.50
2022-09-30T03:40:59.279Z,5.30
2022-09-30T03:43:50.750Z,5.20
2022-09-30T03:46:42.418Z,5.10
2022-09-30T03:49:17.073Z,5.00
2022-09-30T03:51:44.050Z,4.90
2022-09-30T03:54:20.493Z,4.80
2022-09-30T03:56:47.511Z,4.80
2022-09-30T03:59:25.111Z,4.60
2022-09-30T04:01:52.910Z,4.50
2022-09-30T04:04:23.226Z,4.40
2022-09-30T04:06:50.092Z,4.40
2022-09-30T04:09:17.713Z,4.20
2022-09-30T04:11:44.546Z,4.10
2022-09-30T04:14:14.645Z,4.00
2022-09-30T04:16:41.874Z,4.00
2022-09-30T04:19:08.624Z,3.90
2022-09-30T04:21:35.765Z,3.80
2022-09-30T04:24:02.955Z,3.70
2022-09-30T04:26:32.742Z,3.60
2022-09-30T04:29:06.074Z,3.60
2022-09-30T04:31:33.246Z,3.50
2022-09-30T04:34:00.061Z,3.50
2022-09-30T04:36:26.834Z,3.40
2022-09-30T04:38:56.883Z,3.40
2022-09-30T04:41:26.710Z,3.40
2022-09-30T04:43:53.489Z,3.30
2022-09-30T04:46:23.041Z,3.20
2022-09-30T04:48:50.221Z,3.10
2022-09-30T04:51:20.047Z,3.10
2022-09-30T04:53:47.807Z,3.00
2022-09-30T04:56:17.603Z,3.00
2022-09-30T04:58:48.236Z,3.00
2022-09-30T05:01:18.075Z,2.90
2022-09-30T05:03:45.379Z,2.80
2022-09-30T05:06:24.756Z,2.80
2022-09-30T05:08:51.928Z,2.70
2022-09-30T05:11:20.743Z,2.70
2022-09-30T05:13:51.086Z,2.70
2022-09-30T05:16:19.502Z,2.70
2022-09-30T05:18:47.299Z,2.70
2022-09-30T05:21:17.148Z,2.60
2022-09-30T05:23:44.365Z,2.60
2022-09-30T05:26:12.903Z,2.60
2022-09-30T05:28:43.719Z,2.60
2022-09-30T05:31:14.804Z,2.60
2022-09-30T05:33:42.017Z,2.60
2022-09-30T05:36:12.354Z,2.60
2022-09-30T05:38:42.722Z,2.60
2022-09-30T05:41:12.490Z,2.60
2022-09-30T05:43:47.794Z,2.70
2022-09-30T05:46:21.585Z,2.70
2022-09-30T05:48:48.333Z,2.70
2022-09-30T05:51:18.238Z,2.70
2022-09-30T05:53:44.938Z,2.70
2022-09-30T05:56:13.590Z,2.80
2022-09-30T05:58:42.441Z,2.80
2022-09-30T06:01:13.820Z,2.90
2022-09-30T06:03:48.628Z,3.10
2022-09-30T06:06:15.800Z,3.10
2022-09-30T06:08:44.025Z,3.20
2022-09-30T06:11:13.729Z,3.30
2022-09-30T06:13:42.591Z,3.50
2022-09-30T06:16:14.404Z,3.60
2022-09-30T06:18:41.845Z,3.70
2022-09-30T06:21:12.192Z,3.70
2022-09-30T06:23:43.211Z,3.70
2022-09-30T06:26:12.115Z,3.80
2022-09-30T06:28:39.382Z,3.80
2022-09-30T06:31:07.050Z,3.90
2022-09-30T06:33:37.405Z,4.00
2022-09-30T06:36:07.691Z,4.20
2022-09-30T06:38:39.371Z,4.30
2022-09-30T06:41:07.459Z,4.50
2022-09-30T06:43:41.303Z,4.60
2022-09-30T06:46:24.387Z,4.70
2022-09-30T06:49:09.259Z,4.80
2022-09-30T06:51:39.177Z,4.90
2022-09-30T06:54:08.546Z,5.10
2022-09-30T06:56:38.325Z,5.30
2022-09-30T06:59:05.581Z,5.40
2022-09-30T07:01:41.926Z,5.60
2022-09-30T07:04:15.376Z,5.90
2022-09-30T07:06:42.405Z,6.00
2022-09-30T07:09:11.331Z,6.20
2022-09-30T07:11:39.570Z,6.40
2022-09-30T07:14:07.357Z,6.50
2022-09-30T07:16:36.772Z,6.60
2022-09-30T07:19:05.263Z,6.80
2022-09-30T07:21:34.672Z,7.00
2022-09-30T07:24:01.681Z,7.20
2022-09-30T07:26:31.146Z,7.40
2022-09-30T07:29:00.021Z,7.60
2022-09-30T07:31:35.558Z,7.70
2022-09-30T07:34:07.178Z,7.90
2022-09-30T07:36:36.151Z,8.00
2022-09-30T07:39:06.852Z,8.20
2022-09-30T07:41:36.913Z,8.40
2022-09-30T07:44:06.320Z,8.70
2022-09-30T07:46:34.816Z,8.90
2022-09-30T07:49:04.731Z,9.10
2022-09-30T07:51:35.145Z,9.30
2022-09-30T07:54:06.583Z,9.50
2022-09-30T07:57:05.187Z,9.80
2022-09-30T07:59:27.756Z,9.90
2022-09-30T08:01:54.931Z,9.90
2022-09-30T08:04:23.195Z,10.00
2022-09-30T08:06:55.974Z,10.10
2022-09-30T08:09:25.637Z,10.30
2022-09-30T08:11:53.101Z,10.50
2022-09-30T08:14:28.216Z,10.70
2022-09-30T08:16:57.049Z,10.90
2022-09-30T08:19:25.093Z,11.00
2022-09-30T08:21:55.719Z,11.10
2022-09-30T08:24:24.073Z,11.20
2022-09-30T08:26:51.902Z,11.30
2022-09-30T08:29:42.572Z,11.50
2022-09-30T08:32:09.034Z,11.60
2022-09-30T08:34:36.157Z,11.90
2022-09-30T08:37:11.068Z,12.10
2022-09-30T08:39:38.705Z,12.30
2022-09-30T08:42:37.996Z,12.40
2022-09-30T08:45:34.190Z,12.30
2022-09-30T08:51:21.628Z,12.40
2022-09-30T08:53:48.996Z,12.70
2022-09-30T08:56:33.583Z,12.80
2022-09-30T08:59:26.768Z,13.00
2022-09-30T09:02:21.781Z,13.20
2022-09-30T09:04:59.456Z,13.50
2022-09-30T09:08:07.486Z,13.50
2022-09-30T09:11:10.906Z,13.40
2022-09-30T09:14:17.499Z,13.60
2022-09-30T09:17:18.567Z,13.60
2022-09-30T09:20:14.708Z,13.60
2022-09-30T09:22:46.544Z,14.10
2022-09-30T09:25:20.127Z,14.20
2022-09-30T09:27:54.759Z,14.20
2022-09-30T09:30:24.441Z,14.30
2022-09-30T09:33:07.338Z,14.60
2022-09-30T09:35:48.214Z,14.70
2022-09-30T09:38:35.989Z,14.60
2022-09-30T09:41:30.708Z,14.60
2022-09-30T09:44:01.049Z,14.50
2022-09-30T09:46:46.643Z,14.40
2022-09-30T09:52:13.624Z,15.20
2022-09-30T09:54:43.826Z,15.40
2022-09-30T09:57:14.975Z,15.50
2022-09-30T10:00:21.696Z,15.70
2022-09-30T10:03:21.174Z,15.80
2022-09-30T10:06:00.632Z,15.50
2022-09-30T10:08:29.118Z,15.60
2022-09-30T10:11:03.369Z,15.50
2022-09-30T10:13:44.058Z,15.20
2022-09-30T10:16:38.089Z,14.60
2022-09-30T10:19:21.059Z,14.40
2022-09-30T10:21:48.085Z,14.30
2022-09-30T10:24:30.982Z,14.40
2022-09-30T10:26:58.418Z,14.50
2022-09-30T10:29:36.032Z,14.50
2022-09-30T10:32:09.017Z,14.30
2022-09-30T10:34:40.182Z,14.10
2022-09-30T10:37:25.331Z,13.90
2022-09-30T10:40:02.832Z,13.90
2022-09-30T10:42:33.071Z,14.00
2022-09-30T10:45:18.254Z,14.20
2022-09-30T10:47:48.719Z,14.20
2022-09-30T10:50:25.153Z,14.30
2022-09-30T10:53:03.449Z,14.20
2022-09-30T10:55:36.134Z,14.30
2022-09-30T10:58:21.814Z,14.50
2022-09-30T11:00:53.925Z,14.50
2022-09-30T11:04:04.912Z,14.80
2022-09-30T11:06:33.552Z,14.70
2022-09-30T11:09:13.197Z,14.80
2022-09-30T11:11:58.989Z,14.90
2022-09-30T11:14:33.022Z,15.00
2022-09-30T11:17:29.504Z,14.90
2022-09-30T11:20:17.548Z,15.00
2022-09-30T11:23:07.976Z,14.80
2022-09-30T11:25:53.599Z,14.80
2022-09-30T11:28:55.777Z,14.80
2022-09-30T11:31:39.549Z,14.60
2022-09-30T11:34:37.744Z,14.50
2022-09-30T11:37:24.695Z,14.70
2022-09-30T11:40:11.229Z,14.80
2022-09-30T11:43:08.426Z,15.10
2022-09-30T11:45:57.653Z,15.40
2022-09-30T11:49:02.183Z,15.70
2022-09-30T11:52:06.121Z,15.70
2022-09-30T11:54:46.636Z,15.70
2022-09-30T11:57:42.342Z,15.60
2022-09-30T12:00:12.256Z,15.00
2022-09-30T12:02:46.922Z,15.00
2022-09-30T12:05:24.945Z,14.90
2022-09-30T12:08:14.269Z,14.90
2022-09-30T12:10:49.721Z,14.80
2022-09-30T12:13:54.593Z,15.00
2022-09-30T12:16:25.524Z,15.40
2022-09-30T12:19:02.938Z,15.60
2022-09-30T12:21:55.856Z,15.80
2022-09-30T12:24:43.153Z,15.60
2022-09-30T12:27:40.006Z,15.50
2022-09-30T12:30:19.139Z,15.70
2022-09-30T12:32:54.677Z,15.60
2022-09-30T12:35:58.462Z,15.50
2022-09-30T12:38:56.441Z,15.40
2022-09-30T12:41:46.764Z,15.10
2022-09-30T12:44:56.769Z,14.90
2022-09-30T12:47:45.742Z,14.80
2022-09-30T12:50:22.725Z,14.80
2022-09-30T12:52:52.747Z,14.50
2022-09-30T12:55:33.018Z,14.70
2022-09-30T12:58:03.109Z,14.70
2022-09-30T13:00:37.045Z,14.50
2022-09-30T13:03:24.899Z,14.40
2022-09-30T13:06:09.072Z,14.40
2022-09-30T13:08:45.333Z,14.70
2022-09-30T13:11:40.486Z,14.70
2022-09-30T13:14:29.730Z,14.70
2022-09-30T13:17:09.100Z,14.90
2022-09-30T13:19:44.547Z,14.90
2022-09-30T13:22:30.031Z,15.10
2022-09-30T13:25:05.940Z,15.00
2022-09-30T13:27:39.368Z,14.80
2022-09-30T13:30:18.576Z,14.80
2022-09-30T13:32:57.510Z,14.60
2022-09-30T13:35:54.792Z,14.60
2022-09-30T13:38:33.320Z,14.70
2022-09-30T13:41:14.199Z,14.80
2022-09-30T13:43:52.755Z,14.90
2022-09-30T13:46:27.114Z,14.90
2022-09-30T13:49:19.548Z,15.20
2022-09-30T13:51:46.883Z,15.30
2022-09-30T13:54:40.287Z,15.00
2022-09-30T13:57:10.042Z,14.60
2022-09-30T14:00:05.228Z,14.70
2022-09-30T14:03:06.797Z,14.70
2022-09-30T14:06:00.145Z,14.80
2022-09-30T14:08:58.100Z,14.80
2022-09-30T14:12:12.336Z,14.60
2022-09-30T14:15:04.159Z,14.40
2022-09-30T14:17:56.866Z,14.20
2022-09-30T14:20:30.602Z,14.20
2022-09-30T14:22:57.631Z,14.20
2022-09-30T14:25:24.773Z,14.20
2022-09-30T14:28:16.286Z,14.30
2022-09-30T14:31:03.789Z,14.20
2022-09-30T14:33:31.927Z,14.20
2022-09-30T14:36:09.168Z,14.20
2022-09-30T14:38:36.874Z,14.20
2022-09-30T14:41:10.700Z,14.30
2022-09-30T14:43:43.206Z,14.20
2022-09-30T14:46:19.151Z,14.10
2022-09-30T14:48:48.785Z,14.20
2022-09-30T14:51:22.847Z,14.20
2022-09-30T14:54:03.798Z,14.10
2022-09-30T14:56:36.495Z,14.00
2022-09-30T14:59:33.252Z,14.10
2022-09-30T15:02:20.412Z,14.10
2022-09-30T15:05:00.402Z,13.90
2022-09-30T15:07:28.320Z,13.90
2022-09-30T15:10:02.396Z,13.90
2022-09-30T15:12:32.632Z,13.90
2022-09-30T15:15:00.332Z,13.70
2022-09-30T15:17:30.020Z,13.50
2022-09-30T15:20:01.009Z,13.40
2022-09-30T15:22:30.218Z,13.20
2022-09-30T15:24:58.218Z,13.00
2022-09-30T15:27:30.757Z,13.00
2022-09-30T15:30:02.963Z,13.10
2022-09-30T15:32:33.858Z,13.10
2022-09-30T15:35:13.256Z,13.20
2022-09-30T15:37:40.185Z,13.30
2022-09-30T15:40:37.577Z,13.50
2022-09-30T15:43:14.725Z,13.80
2022-09-30T15:45:44.049Z,14.00
2022-09-30T15:48:26.111Z,13.80
2022-09-30T15:50:55.942Z,13.40
2022-09-30T15:53:25.679Z,13.00
2022-09-30T15:56:31.136Z,12.70
2022-09-30T15:59:11.082Z,12.30
2022-09-30T16:01:49.561Z,12.00
2022-09-30T16:04:16.155Z,12.00
2022-09-30T16:06:48.874Z,12.10
2022-09-30T16:09:23.749Z,12.10
2022-09-30T16:12:12.279Z,11.80
2022-09-30T16:14:54.491Z,11.50
2022-09-30T16:17:35.513Z,11.10
2022-09-30T16:20:14.909Z,10.90
2022-09-30T16:22:41.555Z,10.70
2022-09-30T16:25:33.863Z,10.50
2022-09-30T16:28:14.982Z,10.30
2022-09-30T16:30:44.664Z,10.10
2022-09-30T16:33:13.262Z,9.90
2022-09-30T16:35:44.737Z,9.60
2022-09-30T16:38:19.292Z,9.40
2022-09-30T16:40:46.315Z,9.20
2022-09-30T16:43:21.774Z,9.10
2022-09-30T16:45:48.754Z,8.90
2022-09-30T16:48:17.005Z,8.80
2022-09-30T16:50:54.473Z,8.70
2022-09-30T16:53:21.956Z,8.50
2022-09-30T16:55:48.671Z,8.40
2022-09-30T16:58:21.768Z,8.20
2022-09-30T17:00:48.884Z,8.20
2022-09-30T17:03:18.349Z,8.10
2022-09-30T17:05:52.003Z,8.00
2022-09-30T17:08:25.582Z,7.90
2022-09-30T17:10:52.678Z,7.70
2022-09-30T17:13:22.591Z,7.60
2022-09-30T17:15:52.558Z,7.40
2022-09-30T17:18:19.811Z,7.30
2022-09-30T17:20:55.199Z,7.10
2022-09-30T17:23:24.186Z,7.00
2022-09-30T17:25:55.047Z,7.00
2022-09-30T17:28:22.889Z,6.80
2022-09-30T17:30:50.461Z,6.80
2022-09-30T17:33:24.203Z,6.60
2022-09-30T17:36:02.301Z,6.50
2022-09-30T17:38:29.881Z,6.40
2022-09-30T17:41:15.539Z,6.40
2022-09-30T17:43:42.705Z,6.30
2022-09-30T17:46:09.632Z,6.20
2022-09-30T17:48:38.124Z,6.20
2022-09-30T17:51:06.284Z,6.20
2022-09-30T17:53:33.005Z,6.20
2022-09-30T17:56:10.552Z,6.10
2022-09-30T17:58:37.277Z,6.10
2022-09-30T18:01:08.367Z,6.00
2022-09-30T18:03:35.772Z,5.90
2022-09-30T18:06:03.446Z,5.90
2022-09-30T18:08:30.441Z,5.80
2022-09-30T18:10:57.415Z,5.70
2022-09-30T18:13:28.119Z,5.70
2022-09-30T18:15:59.650Z,5.60
2022-09-30T18:18:26.432Z,5.60
2022-09-30T18:20:53.097Z,5.50
2022-09-30T18:23:19.841Z,5.40
2022-09-30T18:25:51.954Z,5.30
2022-09-30T18:28:18.884Z,5.30
2022-09-30T18:30:46.605Z,5.30
2022-09-30T18:33:17.211Z,5.20
2022-09-30T18:35:44.014Z,5.20
2022-09-30T18:38:12.754Z,5.10
2022-09-30T18:40:43.122Z,5.00
2022-09-30T18:43:13.582Z,5.00
2022-09-30T18:45:40.963Z,4.90
2022-09-30T18:48:08.850Z,4.80
2022-09-30T18:50:35.824Z,4.80
2022-09-30T18:53:09.421Z,4.70
2022-09-30T18:55:44.273Z,4.60
2022-09-30T18:58:11.077Z,4.60
2022-09-30T19:00:38.346Z,4.50
2022-09-30T19:03:05.128Z,4.50
2022-09-30T19:05:32.113Z,4.40
2022-09-30T19:08:01.642Z,4.40
2022-09-30T19:10:31.059Z,4.30
2022-09-30T19:12:57.800Z,4.20
2022-09-30T19:15:24.849Z,4.20
2022-09-30T19:17:55.388Z,4.20
2022-09-30T19:20:23.278Z,4.10
2022-09-30T19:22:53.194Z,4.00
2022-09-30T19:25:22.604Z,3.90
2022-09-30T19:27:49.986Z,3.80
2022-09-30T19:30:16.831Z,3.80
2022-09-30T19:32:43.815Z,3.70
2022-09-30T19:35:17.110Z,3.70
2022-09-30T19:38:02.139Z,3.70
2022-09-30T19:43:00.465Z,3.70
2022-09-30T19:45:31.384Z,3.70
2022-09-30T19:47:59.569Z,3.60
2022-09-30T19:50:27.231Z,3.60
2022-09-30T19:52:57.687Z,3.60
2022-09-30T19:55:25.628Z,3.50
2022-09-30T19:57:52.677Z,3.50
2022-09-30T20:00:22.529Z,3.40
2022-09-30T20:02:53.379Z,3.40
2022-09-30T20:05:20.915Z,3.30
2022-09-30T20:07:51.065Z,3.30
2022-09-30T20:10:21.740Z,3.30
2022-09-30T20:12:52.700Z,3.30
2022-09-30T20:15:40.432Z,3.20
2022-09-30T20:18:11.671Z,3.20
2022-09-30T20:20:42.916Z,3.20
2022-09-30T20:23:09.679Z,3.10
2022-09-30T20:25:38.355Z,3.10
2022-09-30T20:28:08.226Z,3.10
2022-09-30T20:30:39.612Z,3.00
2022-09-30T20:33:06.415Z,3.00
2022-09-30T20:35:37.035Z,3.00
2022-09-30T20:38:03.911Z,2.90
2022-09-30T20:40:30.640Z,2.90
2022-09-30T20:43:01.892Z,2.90
2022-09-30T20:45:28.833Z,2.90
2022-09-30T20:48:03.894Z,2.90
2022-09-30T20:50:36.489Z,2.80
2022-09-30T20:53:12.148Z,2.80
2022-09-30T20:55:41.294Z,2.80
2022-09-30T20:58:08.621Z,2.70
2022-09-30T21:00:39.763Z,2.70
2022-09-30T21:03:12.474Z,2.70
2022-09-30T21:05:39.440Z,2.60
2022-09-30T21:08:09.261Z,2.50
2022-09-30T21:10:37.313Z,2.60
2022-09-30T21:13:10.838Z,2.50
2022-09-30T21:15:40.620Z,2.50
2022-09-30T21:18:07.910Z,2.50
2022-09-30T21:20:35.431Z,2.40
2022-09-30T21:23:03.663Z,2.40
2022-09-30T21:25:33.956Z,2.30
2022-09-30T21:28:03.391Z,2.30
2022-09-30T21:30:40.581Z,2.30
2022-09-30T21:33:09.820Z,2.20
2022-09-30T21:35:36.649Z,2.20
2022-09-30T21:38:03.588Z,2.20
2022-09-30T21:40:30.397Z,2.10
2022-09-30T21:42:58.649Z,2.10
2022-09-30T21:45:28.783Z,2.10
2022-09-30T21:48:03.292Z,2.00
2022-09-30T21:50:32.436Z,2.00
2022-09-30T21:52:59.931Z,2.00
2022-09-30T21:55:27.716Z,2.00
2022-09-30T21:57:55.524Z,1.90
2022-09-30T22:00:22.462Z,1.90
2022-09-30T22:02:49.217Z,1.90
2022-09-30T22:05:20.733Z,1.80
2022-09-30T22:07:48.144Z,1.80
2022-09-30T22:10:23.252Z,1.80
2022-09-30T22:12:51.130Z,1.80
2022-09-30T22:15:19.081Z,1.90
2022-09-30T22:17:51.468Z,1.80
2022-09-30T22:20:22.204Z,1.80
2022-09-30T22:22:49.078Z,1.70
2022-09-30T22:25:16.366Z,1.70
2022-09-30T22:27:43.341Z,1.70
2022-09-30T22:30:13.249Z,1.70
2022-09-30T22:32:39.962Z,1.70
2022-09-30T22:35:26.052Z,1.70
2022-09-30T22:38:11.334Z,1.60
2022-09-30T22:40:38.384Z,1.60
2022-09-30T22:43:08.207Z,1.60
2022-09-30T22:45:38.191Z,1.60
2022-09-30T22:48:07.124Z,1.60
2022-09-30T22:50:44.664Z,1.60
2022-09-30T22:53:11.413Z,1.50
2022-09-30T22:55:38.540Z,1.50
2022-09-30T22:58:05.265Z,1.50
2022-09-30T23:00:31.943Z,1.50
2022-09-30T23:02:58.790Z,1.40
2022-09-30T23:05:25.969Z,1.40
2022-09-30T23:07:56.049Z,1.40
2022-09-30T23:10:22.759Z,1.40
2022-09-30T23:12:59.073Z,1.40
2022-09-30T23:15:26.131Z,1.40
2022-09-30T23:17:52.782Z,1.40
2022-09-30T23:20:19.887Z,1.40
2022-09-30T23:22:47.446Z,1.40
2022-09-30T23:25:17.209Z,1.30
2022-09-30T23:27:49.086Z,1.30
2022-09-30T23:30:16.048Z,1.30
2022-09-30T23:32:42.746Z,1.30
2022-09-30T23:35:09.820Z,1.30
2022-09-30T23:37:39.239Z,1.30
2022-09-30T23:40:15.410Z,1.30
2022-09-30T23:42:42.388Z,1.20
2022-09-30T23:45:09.478Z,1.20
2022-09-30T23:47:39.250Z,1.10
2022-09-30T23:50:06.678Z,1.10
2022-09-30T23:52:33.335Z,1.10
2022-09-30T23:55:00.036Z,1.00
2022-09-30T23:57:27.120Z,1.00
2022-09-30T23:59:56.095Z,1.10
